sensor_id;sensor_type;location;lat;lon;timestamp;pressure;altitude;pressure_sealevel;temperature;humidity
80699;BME280;70062;51.658;5.658;2023-09-19T00:27:16;100658.39;;;15.46;78.56
80699;BME280;70062;51.658;5.658;2023-09-19T00:29:41;100661.73;;;15.34;78.74
80699;BME280;70062;51.658;5.658;2023-09-19T00:32:07;100663.46;;;15.28;78.96
80699;BME280;70062;51.658;5.658;2023-09-19T00:34:32;100669.73;;;15.23;79.00
80699;BME280;70062;51.658;5.658;2023-09-19T00:36:59;100675.54;;;15.21;79.14
80699;BME280;70062;51.658;5.658;2023-09-19T00:39:24;100674.25;;;15.18;79.21
80699;BME280;70062;51.658;5.658;2023-09-19T00:41:50;100678.69;;;15.16;79.21
80699;BME280;70062;51.658;5.658;2023-09-19T00:44:16;100676.91;;;15.14;79.30
80699;BME280;70062;51.658;5.658;2023-09-19T00:46:43;100680.40;;;15.09;79.41
80699;BME280;70062;51.658;5.658;2023-09-19T00:49:09;100681.31;;;15.04;79.52
80699;BME280;70062;51.658;5.658;2023-09-19T00:51:35;100681.86;;;14.99;79.62
80699;BME280;70062;51.658;5.658;2023-09-19T00:54:02;100686.90;;;14.94;79.80
80699;BME280;70062;51.658;5.658;2023-09-19T00:56:28;100693.33;;;14.89;79.83
80699;BME280;70062;51.658;5.658;2023-09-19T00:58:53;100694.98;;;14.86;80.04
80699;BME280;70062;51.658;5.658;2023-09-19T01:01:18;100696.84;;;14.85;80.02
80699;BME280;70062;51.658;5.658;2023-09-19T01:03:50;100701.72;;;14.87;80.11
80699;BME280;70062;51.658;5.658;2023-09-19T01:06:15;100703.52;;;14.89;80.01
80699;BME280;70062;51.658;5.658;2023-09-19T01:08:43;100700.85;;;14.93;80.01
80699;BME280;70062;51.658;5.658;2023-09-19T01:11:20;100707.14;;;14.95;79.79
80699;BME280;70062;51.658;5.658;2023-09-19T01:14:19;100709.57;;;14.95;79.63
80699;BME280;70062;51.658;5.658;2023-09-19T01:16:56;100710.41;;;14.94;79.46
80699;BME280;70062;51.658;5.658;2023-09-19T01:22:07;100715.92;;;14.94;79.41
80699;BME280;70062;51.658;5.658;2023-09-19T01:25:07;100715.20;;;14.93;79.28
80699;BME280;70062;51.658;5.658;2023-09-19T01:30:43;100727.13;;;14.93;79.01
80699;BME280;70062;51.658;5.658;2023-09-19T01:33:09;100727.42;;;14.91;78.89
80699;BME280;70062;51.658;5.658;2023-09-19T01:35:38;100725.45;;;14.89;78.74
80699;BME280;70062;51.658;5.658;2023-09-19T01:38:05;100727.27;;;14.86;78.64
80699;BME280;70062;51.658;5.658;2023-09-19T01:40:35;100729.74;;;14.82;78.51
80699;BME280;70062;51.658;5.658;2023-09-19T01:43:38;100733.58;;;14.78;78.37
80699;BME280;70062;51.658;5.658;2023-09-19T01:46:14;100730.64;;;14.71;78.31
80699;BME280;70062;51.658;5.658;2023-09-19T01:49:15;100732.02;;;14.66;78.26
80699;BME280;70062;51.658;5.658;2023-09-19T01:51:56;100733.09;;;14.61;78.23
80699;BME280;70062;51.658;5.658;2023-09-19T01:54:45;100730.72;;;14.57;78.45
80699;BME280;70062;51.658;5.658;2023-09-19T01:57:28;100734.16;;;14.51;78.39
80699;BME280;70062;51.658;5.658;2023-09-19T02:00:05;100739.34;;;14.46;78.37
80699;BME280;70062;51.658;5.658;2023-09-19T02:02:36;100737.14;;;14.42;78.43
80699;BME280;70062;51.658;5.658;2023-09-19T02:05:03;100736.62;;;14.37;78.25
80699;BME280;70062;51.658;5.658;2023-09-19T02:07:29;100737.05;;;14.34;77.82
80699;BME280;70062;51.658;5.658;2023-09-19T02:09:58;100736.46;;;14.32;77.68
80699;BME280;70062;51.658;5.658;2023-09-19T02:12:25;100734.66;;;14.30;77.54
80699;BME280;70062;51.658;5.658;2023-09-19T02:14:51;100737.56;;;14.29;77.31
80699;BME280;70062;51.658;5.658;2023-09-19T02:17:16;100734.24;;;14.27;77.21
80699;BME280;70062;51.658;5.658;2023-09-19T02:19:42;100734.39;;;14.27;77.24
80699;BME280;70062;51.658;5.658;2023-09-19T02:22:07;100738.85;;;14.26;77.19
80699;BME280;70062;51.658;5.658;2023-09-19T02:24:36;100740.92;;;14.26;77.23
80699;BME280;70062;51.658;5.658;2023-09-19T02:27:04;100741.23;;;14.24;76.92
80699;BME280;70062;51.658;5.658;2023-09-19T02:29:31;100742.73;;;14.23;76.94
80699;BME280;70062;51.658;5.658;2023-09-19T02:31:57;100743.56;;;14.22;76.77
80699;BME280;70062;51.658;5.658;2023-09-19T02:34:23;100744.39;;;14.21;76.68
80699;BME280;70062;51.658;5.658;2023-09-19T02:36:48;100748.36;;;14.21;76.87
80699;BME280;70062;51.658;5.658;2023-09-19T02:39:13;100749.14;;;14.19;76.82
80699;BME280;70062;51.658;5.658;2023-09-19T02:41:39;100752.70;;;14.16;76.34
80699;BME280;70062;51.658;5.658;2023-09-19T02:44:04;100757.94;;;14.13;76.26
80699;BME280;70062;51.658;5.658;2023-09-19T02:46:35;100757.88;;;14.11;76.34
80699;BME280;70062;51.658;5.658;2023-09-19T02:49:04;100757.63;;;14.09;76.05
80699;BME280;70062;51.658;5.658;2023-09-19T02:51:32;100760.99;;;14.06;76.26
80699;BME280;70062;51.658;5.658;2023-09-19T02:53:59;100758.66;;;14.04;76.33
80699;BME280;70062;51.658;5.658;2023-09-19T02:56:25;100760.83;;;14.01;76.36
80699;BME280;70062;51.658;5.658;2023-09-19T02:58:50;100757.98;;;13.99;76.28
80699;BME280;70062;51.658;5.658;2023-09-19T03:01:16;100759.73;;;13.95;76.13
80699;BME280;70062;51.658;5.658;2023-09-19T03:03:43;100763.09;;;13.92;76.24
80699;BME280;70062;51.658;5.658;2023-09-19T03:06:10;100761.99;;;13.90;76.34
80699;BME280;70062;51.658;5.658;2023-09-19T03:08:36;100764.84;;;13.87;76.41
80699;BME280;70062;51.658;5.658;2023-09-19T03:11:04;100767.70;;;13.86;76.43
80699;BME280;70062;51.658;5.658;2023-09-19T03:13:32;100765.91;;;13.85;76.49
80699;BME280;70062;51.658;5.658;2023-09-19T03:15:57;100766.16;;;13.82;76.44
80699;BME280;70062;51.658;5.658;2023-09-19T03:18:26;100768.35;;;13.80;76.46
80699;BME280;70062;51.658;5.658;2023-09-19T03:20:55;100766.86;;;13.77;76.18
80699;BME280;70062;51.658;5.658;2023-09-19T03:23:21;100764.73;;;13.75;76.20
80699;BME280;70062;51.658;5.658;2023-09-19T03:25:47;100763.83;;;13.74;76.03
80699;BME280;70062;51.658;5.658;2023-09-19T03:28:13;100767.09;;;13.73;76.15
80699;BME280;70062;51.658;5.658;2023-09-19T03:30:38;100766.38;;;13.73;75.95
80699;BME280;70062;51.658;5.658;2023-09-19T03:33:04;100770.33;;;13.72;76.00
80699;BME280;70062;51.658;5.658;2023-09-19T03:35:30;100773.92;;;13.72;75.69
80699;BME280;70062;51.658;5.658;2023-09-19T03:37:56;100773.73;;;13.71;75.46
80699;BME280;70062;51.658;5.658;2023-09-19T03:40:21;100773.51;;;13.70;75.39
80699;BME280;70062;51.658;5.658;2023-09-19T03:42:48;100772.31;;;13.70;75.45
80699;BME280;70062;51.658;5.658;2023-09-19T03:45:14;100766.13;;;13.71;75.32
80699;BME280;70062;51.658;5.658;2023-09-19T03:47:39;100762.48;;;13.70;75.21
80699;BME280;70062;51.658;5.658;2023-09-19T03:50:06;100757.14;;;13.70;75.15
80699;BME280;70062;51.658;5.658;2023-09-19T03:52:36;100760.06;;;13.70;75.18
80699;BME280;70062;51.658;5.658;2023-09-19T03:55:01;100754.72;;;13.70;75.12
80699;BME280;70062;51.658;5.658;2023-09-19T03:57:29;100754.72;;;13.70;75.06
80699;BME280;70062;51.658;5.658;2023-09-19T03:59:55;100754.17;;;13.69;75.02
80699;BME280;70062;51.658;5.658;2023-09-19T04:02:21;100753.67;;;13.70;75.05
80699;BME280;70062;51.658;5.658;2023-09-19T04:04:52;100753.14;;;13.69;75.10
80699;BME280;70062;51.658;5.658;2023-09-19T04:07:23;100755.36;;;13.69;74.97
80699;BME280;70062;51.658;5.658;2023-09-19T04:09:51;100755.54;;;13.69;74.97
80699;BME280;70062;51.658;5.658;2023-09-19T04:12:18;100755.90;;;13.69;75.02
80699;BME280;70062;51.658;5.658;2023-09-19T04:14:44;100754.15;;;13.68;74.95
80699;BME280;70062;51.658;5.658;2023-09-19T04:17:09;100751.72;;;13.68;75.04
80699;BME280;70062;51.658;5.658;2023-09-19T04:19:36;100755.84;;;13.68;75.09
80699;BME280;70062;51.658;5.658;2023-09-19T04:22:01;100758.23;;;13.67;75.28
80699;BME280;70062;51.658;5.658;2023-09-19T04:24:28;100766.67;;;13.67;75.33
80699;BME280;70062;51.658;5.658;2023-09-19T04:26:53;100770.30;;;13.67;75.52
80699;BME280;70062;51.658;5.658;2023-09-19T04:29:18;100775.63;;;13.66;75.47
80699;BME280;70062;51.658;5.658;2023-09-19T04:31:44;100780.58;;;13.64;75.56
80699;BME280;70062;51.658;5.658;2023-09-19T04:34:11;100785.34;;;13.63;75.88
80699;BME280;70062;51.658;5.658;2023-09-19T04:36:42;100793.89;;;13.61;76.06
80699;BME280;70062;51.658;5.658;2023-09-19T04:39:08;100803.41;;;13.61;76.18
80699;BME280;70062;51.658;5.658;2023-09-19T04:41:35;100804.32;;;13.63;76.18
80699;BME280;70062;51.658;5.658;2023-09-19T04:44:05;100811.12;;;13.65;76.40
80699;BME280;70062;51.658;5.658;2023-09-19T04:46:30;100817.91;;;13.67;76.31
80699;BME280;70062;51.658;5.658;2023-09-19T04:48:56;100823.88;;;13.70;76.46
80699;BME280;70062;51.658;5.658;2023-09-19T04:51:21;100819.56;;;13.75;76.52
80699;BME280;70062;51.658;5.658;2023-09-19T04:53:46;100823.57;;;13.80;76.62
80699;BME280;70062;51.658;5.658;2023-09-19T04:56:13;100825.40;;;13.88;76.57
80699;BME280;70062;51.658;5.658;2023-09-19T04:58:38;100826.99;;;13.94;76.40
80699;BME280;70062;51.658;5.658;2023-09-19T05:01:03;100830.44;;;13.98;76.35
80699;BME280;70062;51.658;5.658;2023-09-19T05:03:31;100827.66;;;14.02;76.39
80699;BME280;70062;51.658;5.658;2023-09-19T05:05:56;100827.74;;;14.05;76.24
80699;BME280;70062;51.658;5.658;2023-09-19T05:08:22;100823.79;;;14.05;76.19
80699;BME280;70062;51.658;5.658;2023-09-19T05:10:47;100824.52;;;14.06;76.26
80699;BME280;70062;51.658;5.658;2023-09-19T05:13:14;100825.52;;;14.05;76.27
80699;BME280;70062;51.658;5.658;2023-09-19T05:15:39;100835.17;;;14.05;76.37
80699;BME280;70062;51.658;5.658;2023-09-19T05:18:05;100839.98;;;14.05;76.41
80699;BME280;70062;51.658;5.658;2023-09-19T05:20:31;100837.89;;;14.04;76.36
80699;BME280;70062;51.658;5.658;2023-09-19T05:23:03;100837.00;;;14.03;76.47
80699;BME280;70062;51.658;5.658;2023-09-19T05:25:34;100839.63;;;14.04;76.53
80699;BME280;70062;51.658;5.658;2023-09-19T05:28:02;100842.60;;;14.05;76.66
80699;BME280;70062;51.658;5.658;2023-09-19T05:30:29;100847.27;;;14.06;76.67
80699;BME280;70062;51.658;5.658;2023-09-19T05:32:54;100837.56;;;14.05;76.61
80699;BME280;70062;51.658;5.658;2023-09-19T05:35:21;100840.73;;;14.06;76.63
80699;BME280;70062;51.658;5.658;2023-09-19T05:37:48;100840.92;;;14.07;76.52
80699;BME280;70062;51.658;5.658;2023-09-19T05:40:18;100844.55;;;14.07;76.66
80699;BME280;70062;51.658;5.658;2023-09-19T05:42:44;100844.06;;;14.08;76.64
80699;BME280;70062;51.658;5.658;2023-09-19T05:45:11;100842.85;;;14.07;76.89
80699;BME280;70062;51.658;5.658;2023-09-19T05:47:42;100847.07;;;14.10;76.80
80699;BME280;70062;51.658;5.658;2023-09-19T05:50:12;100847.84;;;14.12;76.78
80699;BME280;70062;51.658;5.658;2023-09-19T05:52:38;100845.09;;;14.12;76.89
80699;BME280;70062;51.658;5.658;2023-09-19T05:55:07;100837.56;;;14.14;76.92
80699;BME280;70062;51.658;5.658;2023-09-19T05:57:37;100840.11;;;14.18;76.78
80699;BME280;70062;51.658;5.658;2023-09-19T06:00:08;100835.09;;;14.23;76.83
80699;BME280;70062;51.658;5.658;2023-09-19T06:02:39;100836.23;;;14.26;76.90
80699;BME280;70062;51.658;5.658;2023-09-19T06:05:06;100839.11;;;14.29;76.98
80699;BME280;70062;51.658;5.658;2023-09-19T06:07:32;100835.44;;;14.33;76.90
80699;BME280;70062;51.658;5.658;2023-09-19T06:10:05;100836.13;;;14.38;76.93
80699;BME280;70062;51.658;5.658;2023-09-19T06:12:32;100834.92;;;14.43;76.80
80699;BME280;70062;51.658;5.658;2023-09-19T06:15:00;100835.46;;;14.49;76.94
80699;BME280;70062;51.658;5.658;2023-09-19T06:17:25;100839.77;;;14.54;76.81
80699;BME280;70062;51.658;5.658;2023-09-19T06:19:52;100838.39;;;14.59;76.71
80699;BME280;70062;51.658;5.658;2023-09-19T06:22:18;100834.42;;;14.64;76.49
80699;BME280;70062;51.658;5.658;2023-09-19T06:24:44;100834.43;;;14.70;76.29
80699;BME280;70062;51.658;5.658;2023-09-19T06:27:09;100842.27;;;14.77;76.45
80699;BME280;70062;51.658;5.658;2023-09-19T06:29:35;100842.15;;;14.85;76.20
80699;BME280;70062;51.658;5.658;2023-09-19T06:32:06;100847.21;;;14.92;76.06
80699;BME280;70062;51.658;5.658;2023-09-19T06:34:32;100846.73;;;14.98;75.62
80699;BME280;70062;51.658;5.658;2023-09-19T06:36:58;100855.03;;;15.04;75.65
80699;BME280;70062;51.658;5.658;2023-09-19T06:39:23;100864.25;;;15.11;75.66
80699;BME280;70062;51.658;5.658;2023-09-19T06:41:51;100862.55;;;15.18;75.52
80699;BME280;70062;51.658;5.658;2023-09-19T06:44:18;100864.33;;;15.25;75.45
80699;BME280;70062;51.658;5.658;2023-09-19T06:46:44;100874.75;;;15.32;75.22
80699;BME280;70062;51.658;5.658;2023-09-19T06:49:11;100869.74;;;15.38;75.10
80699;BME280;70062;51.658;5.658;2023-09-19T06:51:38;100879.15;;;15.47;74.84
80699;BME280;70062;51.658;5.658;2023-09-19T06:54:03;100875.20;;;15.53;74.67
80699;BME280;70062;51.658;5.658;2023-09-19T06:56:30;100873.63;;;15.58;74.38
80699;BME280;70062;51.658;5.658;2023-09-19T06:58:57;100874.33;;;15.62;74.35
80699;BME280;70062;51.658;5.658;2023-09-19T07:01:22;100870.78;;;15.65;74.04
80699;BME280;70062;51.658;5.658;2023-09-19T07:03:47;100868.05;;;15.67;73.93
80699;BME280;70062;51.658;5.658;2023-09-19T07:06:13;100868.70;;;15.72;74.20
80699;BME280;70062;51.658;5.658;2023-09-19T07:08:38;100866.73;;;15.76;73.83
80699;BME280;70062;51.658;5.658;2023-09-19T07:11:03;100866.73;;;15.76;73.78
80699;BME280;70062;51.658;5.658;2023-09-19T07:13:31;100866.74;;;15.76;73.60
80699;BME280;70062;51.658;5.658;2023-09-19T07:15:58;100866.38;;;15.75;73.88
80699;BME280;70062;51.658;5.658;2023-09-19T07:18:24;100871.98;;;15.78;73.71
80699;BME280;70062;51.658;5.658;2023-09-19T07:20:50;100873.84;;;15.82;73.74
80699;BME280;70062;51.658;5.658;2023-09-19T07:23:18;100875.73;;;15.88;73.81
80699;BME280;70062;51.658;5.658;2023-09-19T07:25:44;100879.70;;;15.94;73.74
80699;BME280;70062;51.658;5.658;2023-09-19T07:28:09;100878.83;;;15.99;73.43
80699;BME280;70062;51.658;5.658;2023-09-19T07:30:38;100878.06;;;16.03;73.22
80699;BME280;70062;51.658;5.658;2023-09-19T07:33:04;100874.41;;;16.09;73.08
80699;BME280;70062;51.658;5.658;2023-09-19T07:35:30;100874.00;;;16.13;72.88
80699;BME280;70062;51.658;5.658;2023-09-19T07:37:56;100871.73;;;16.19;72.86
80699;BME280;70062;51.658;5.658;2023-09-19T07:40:23;100873.05;;;16.23;72.69
80699;BME280;70062;51.658;5.658;2023-09-19T07:42:52;100870.94;;;16.28;72.86
80699;BME280;70062;51.658;5.658;2023-09-19T07:45:17;100878.08;;;16.36;72.46
80699;BME280;70062;51.658;5.658;2023-09-19T07:47:47;100881.92;;;16.45;72.23
80699;BME280;70062;51.658;5.658;2023-09-19T07:50:16;100878.54;;;16.54;72.19
80699;BME280;70062;51.658;5.658;2023-09-19T07:52:43;100875.38;;;16.66;71.97
80699;BME280;70062;51.658;5.658;2023-09-19T07:55:10;100873.45;;;16.79;71.59
80699;BME280;70062;51.658;5.658;2023-09-19T07:57:43;100874.34;;;16.94;71.26
80699;BME280;70062;51.658;5.658;2023-09-19T08:00:09;100882.85;;;17.10;70.87
80699;BME280;70062;51.658;5.658;2023-09-19T08:02:39;100878.46;;;17.23;69.77
80699;BME280;70062;51.658;5.658;2023-09-19T08:05:06;100881.11;;;17.32;69.77
80699;BME280;70062;51.658;5.658;2023-09-19T08:07:32;100886.97;;;17.45;69.77
80699;BME280;70062;51.658;5.658;2023-09-19T08:09:57;100892.77;;;17.56;68.93
80699;BME280;70062;51.658;5.658;2023-09-19T08:12:24;100888.89;;;17.69;69.09
80699;BME280;70062;51.658;5.658;2023-09-19T08:14:49;100889.53;;;17.83;68.57
80699;BME280;70062;51.658;5.658;2023-09-19T08:17:15;100892.16;;;17.93;67.89
80699;BME280;70062;51.658;5.658;2023-09-19T08:19:40;100894.91;;;18.00;68.04
80699;BME280;70062;51.658;5.658;2023-09-19T08:22:07;100890.58;;;18.10;67.65
80699;BME280;70062;51.658;5.658;2023-09-19T08:24:35;100891.43;;;18.18;67.70
80699;BME280;70062;51.658;5.658;2023-09-19T08:27:01;100886.64;;;18.22;67.53
80699;BME280;70062;51.658;5.658;2023-09-19T08:29:30;100883.95;;;18.26;66.78
80699;BME280;70062;51.658;5.658;2023-09-19T08:31:56;100884.17;;;18.30;66.81
80699;BME280;70062;51.658;5.658;2023-09-19T08:34:23;100885.10;;;18.33;66.91
80699;BME280;70062;51.658;5.658;2023-09-19T08:36:50;100876.52;;;18.40;66.53
80699;BME280;70062;51.658;5.658;2023-09-19T08:39:16;100877.90;;;18.48;66.56
80699;BME280;70062;51.658;5.658;2023-09-19T08:41:42;100879.95;;;18.56;65.66
80699;BME280;70062;51.658;5.658;2023-09-19T08:44:07;100883.22;;;18.63;65.59
80699;BME280;70062;51.658;5.658;2023-09-19T08:46:34;100888.17;;;18.68;64.96
80699;BME280;70062;51.658;5.658;2023-09-19T08:49:04;100883.94;;;18.64;65.10
80699;BME280;70062;51.658;5.658;2023-09-19T08:51:41;100885.99;;;18.63;65.05
80699;BME280;70062;51.658;5.658;2023-09-19T08:54:14;100885.45;;;18.62;64.82
80699;BME280;70062;51.658;5.658;2023-09-19T08:56:48;100880.13;;;18.65;64.46
80699;BME280;70062;51.658;5.658;2023-09-19T08:59:15;100887.57;;;18.74;64.55
80699;BME280;70062;51.658;5.658;2023-09-19T09:01:41;100888.34;;;18.89;64.48
80699;BME280;70062;51.658;5.658;2023-09-19T09:04:11;100891.53;;;19.14;63.71
80699;BME280;70062;51.658;5.658;2023-09-19T09:06:38;100889.95;;;19.36;62.75
80699;BME280;70062;51.658;5.658;2023-09-19T09:09:05;100888.71;;;19.47;62.86
80699;BME280;70062;51.658;5.658;2023-09-19T09:11:33;100889.95;;;19.61;62.44
80699;BME280;70062;51.658;5.658;2023-09-19T09:13:58;100894.54;;;19.66;61.94
80699;BME280;70062;51.658;5.658;2023-09-19T09:16:23;100891.13;;;19.71;61.70
80699;BME280;70062;51.658;5.658;2023-09-19T09:18:51;100890.77;;;19.85;61.23
80699;BME280;70062;51.658;5.658;2023-09-19T09:21:18;100890.64;;;19.88;60.80
80699;BME280;70062;51.658;5.658;2023-09-19T09:23:43;100892.34;;;19.85;60.16
80699;BME280;70062;51.658;5.658;2023-09-19T09:26:08;100883.72;;;19.93;60.14
80699;BME280;70062;51.658;5.658;2023-09-19T09:28:35;100885.82;;;20.10;60.54
80699;BME280;70062;51.658;5.658;2023-09-19T09:31:01;100885.57;;;20.18;60.62
80699;BME280;70062;51.658;5.658;2023-09-19T09:33:35;100876.33;;;20.35;59.79
80699;BME280;70062;51.658;5.658;2023-09-19T09:36:02;100876.46;;;20.46;59.26
80699;BME280;70062;51.658;5.658;2023-09-19T09:38:47;100871.31;;;20.57;58.71
80699;BME280;70062;51.658;5.658;2023-09-19T09:41:15;100861.74;;;20.59;58.57
80699;BME280;70062;51.658;5.658;2023-09-19T09:43:52;100855.73;;;20.69;58.19
80699;BME280;70062;51.658;5.658;2023-09-19T09:46:19;100860.57;;;20.64;58.00
80699;BME280;70062;51.658;5.658;2023-09-19T09:51:40;100865.19;;;20.53;57.51
80699;BME280;70062;51.658;5.658;2023-09-19T09:54:15;100866.73;;;20.51;57.56
80699;BME280;70062;51.658;5.658;2023-09-19T09:56:57;100864.62;;;20.48;57.00
80699;BME280;70062;51.658;5.658;2023-09-19T09:59:52;100866.48;;;20.43;57.38
80699;BME280;70062;51.658;5.658;2023-09-19T10:02:28;100872.64;;;20.49;57.57
80699;BME280;70062;51.658;5.658;2023-09-19T10:04:55;100874.08;;;20.53;55.84
80699;BME280;70062;51.658;5.658;2023-09-19T10:07:40;100874.40;;;20.71;55.37
80699;BME280;70062;51.658;5.658;2023-09-19T10:10:08;100869.84;;;20.86;55.00
80699;BME280;70062;51.658;5.658;2023-09-19T10:12:55;100868.89;;;20.98;54.62
80699;BME280;70062;51.658;5.658;2023-09-19T10:15:32;100878.77;;;21.14;54.82
80699;BME280;70062;51.658;5.658;2023-09-19T10:18:04;100872.11;;;21.36;53.65
80699;BME280;70062;51.658;5.658;2023-09-19T10:20:30;100875.32;;;21.49;53.14
80699;BME280;70062;51.658;5.658;2023-09-19T10:26:17;100868.23;;;21.66;52.11
80699;BME280;70062;51.658;5.658;2023-09-19T10:28:43;100866.30;;;21.65;51.34
80699;BME280;70062;51.658;5.658;2023-09-19T10:31:13;100864.02;;;21.62;51.36
80699;BME280;70062;51.658;5.658;2023-09-19T10:33:43;100860.39;;;21.72;51.83
80699;BME280;70062;51.658;5.658;2023-09-19T10:36:10;100856.40;;;21.81;51.15
80699;BME280;70062;51.658;5.658;2023-09-19T10:38:43;100855.92;;;21.94;51.17
80699;BME280;70062;51.658;5.658;2023-09-19T10:41:10;100860.20;;;22.15;50.21
80699;BME280;70062;51.658;5.658;2023-09-19T10:43:38;100851.80;;;22.20;49.74
80699;BME280;70062;51.658;5.658;2023-09-19T10:46:08;100854.27;;;22.37;49.86
80699;BME280;70062;51.658;5.658;2023-09-19T10:48:40;100854.29;;;22.51;49.69
80699;BME280;70062;51.658;5.658;2023-09-19T10:51:22;100854.31;;;22.60;49.35
80699;BME280;70062;51.658;5.658;2023-09-19T10:53:55;100858.86;;;22.65;49.18
80699;BME280;70062;51.658;5.658;2023-09-19T10:56:48;100857.11;;;22.71;49.46
80699;BME280;70062;51.658;5.658;2023-09-19T10:59:17;100862.55;;;22.89;48.32
80699;BME280;70062;51.658;5.658;2023-09-19T11:01:44;100858.16;;;23.00;47.99
80699;BME280;70062;51.658;5.658;2023-09-19T11:04:38;100848.17;;;23.05;47.51
80699;BME280;70062;51.658;5.658;2023-09-19T11:07:11;100842.92;;;23.04;47.80
80699;BME280;70062;51.658;5.658;2023-09-19T11:12:58;100845.70;;;23.12;47.01
80699;BME280;70062;51.658;5.658;2023-09-19T11:14:58;100828.02;;;23.13;46.28
80699;BME280;70062;51.658;5.658;2023-09-19T11:30:41;100815.80;;;22.91;47.58
80699;BME280;70062;51.658;5.658;2023-09-19T11:35:58;100802.09;;;23.15;46.41
80699;BME280;70062;51.658;5.658;2023-09-19T11:43:51;100782.80;;;24.22;44.32
80699;BME280;70062;51.658;5.658;2023-09-19T11:46:17;100788.75;;;24.48;43.01
80699;BME280;70062;51.658;5.658;2023-09-19T11:48:50;100776.43;;;24.69;42.10
80699;BME280;70062;51.658;5.658;2023-09-19T11:53:47;100776.70;;;25.26;40.17
80699;BME280;70062;51.658;5.658;2023-09-19T11:56:16;100777.38;;;25.41;39.76
80699;BME280;70062;51.658;5.658;2023-09-19T11:58:43;100769.67;;;25.40;39.62
80699;BME280;70062;51.658;5.658;2023-09-19T12:01:13;100767.52;;;25.42;40.13
80699;BME280;70062;51.658;5.658;2023-09-19T12:03:46;100766.07;;;25.46;39.08
80699;BME280;70062;51.658;5.658;2023-09-19T12:06:16;100763.41;;;25.34;38.66
80699;BME280;70062;51.658;5.658;2023-09-19T12:08:42;100760.24;;;25.21;39.55
80699;BME280;70062;51.658;5.658;2023-09-19T12:11:14;100757.01;;;25.13;39.77
80699;BME280;70062;51.658;5.658;2023-09-19T12:13:47;100766.65;;;24.98;39.59
80699;BME280;70062;51.658;5.658;2023-09-19T12:16:20;100771.84;;;24.88;39.61
80699;BME280;70062;51.658;5.658;2023-09-19T12:18:50;100771.30;;;24.89;40.25
80699;BME280;70062;51.658;5.658;2023-09-19T12:21:27;100775.38;;;24.86;40.22
80699;BME280;70062;51.658;5.658;2023-09-19T12:24:03;100771.65;;;24.73;40.47
80699;BME280;70062;51.658;5.658;2023-09-19T12:26:41;100775.72;;;24.70;40.47
80699;BME280;70062;51.658;5.658;2023-09-19T12:29:16;100770.48;;;24.67;40.42
80699;BME280;70062;51.658;5.658;2023-09-19T12:31:56;100769.55;;;24.72;40.18
80699;BME280;70062;51.658;5.658;2023-09-19T12:34:30;100771.27;;;24.76;40.59
80699;BME280;70062;51.658;5.658;2023-09-19T12:37:14;100778.76;;;24.66;40.62
80699;BME280;70062;51.658;5.658;2023-09-19T12:39:48;100780.27;;;24.31;41.15
80699;BME280;70062;51.658;5.658;2023-09-19T12:42:17;100780.66;;;23.99;42.01
80699;BME280;70062;51.658;5.658;2023-09-19T12:44:48;100772.79;;;23.69;43.13
80699;BME280;70062;51.658;5.658;2023-09-19T12:47:18;100771.89;;;23.35;43.66
80699;BME280;70062;51.658;5.658;2023-09-19T12:50:08;100779.36;;;23.06;44.08
80699;BME280;70062;51.658;5.658;2023-09-19T12:52:49;100785.89;;;22.73;44.91
80699;BME280;70062;51.658;5.658;2023-09-19T12:55:26;100783.98;;;22.55;45.61
80699;BME280;70062;51.658;5.658;2023-09-19T12:58:12;100785.20;;;22.56;45.55
80699;BME280;70062;51.658;5.658;2023-09-19T13:00:44;100779.77;;;22.80;45.49
80699;BME280;70062;51.658;5.658;2023-09-19T13:03:26;100776.87;;;23.18;45.34
80699;BME280;70062;51.658;5.658;2023-09-19T13:05:57;100779.90;;;23.43;44.67
80699;BME280;70062;51.658;5.658;2023-09-19T13:08:27;100773.61;;;23.77;44.10
80699;BME280;70062;51.658;5.658;2023-09-19T13:11:05;100770.25;;;24.33;43.48
80699;BME280;70062;51.658;5.658;2023-09-19T13:13:49;100770.77;;;24.73;42.87
80699;BME280;70062;51.658;5.658;2023-09-19T13:16:19;100771.57;;;24.80;42.37
80699;BME280;70062;51.658;5.658;2023-09-19T13:18:49;100777.90;;;24.63;42.57
80699;BME280;70062;51.658;5.658;2023-09-19T13:21:34;100779.05;;;24.53;43.26
80699;BME280;70062;51.658;5.658;2023-09-19T13:24:26;100771.14;;;24.53;42.43
80699;BME280;70062;51.658;5.658;2023-09-19T13:26:54;100771.23;;;24.46;42.54
80699;BME280;70062;51.658;5.658;2023-09-19T13:29:19;100776.13;;;24.22;43.02
80699;BME280;70062;51.658;5.658;2023-09-19T13:31:49;100774.21;;;23.92;43.42
80699;BME280;70062;51.658;5.658;2023-09-19T13:34:16;100775.45;;;23.63;44.35
80699;BME280;70062;51.658;5.658;2023-09-19T13:36:43;100775.71;;;23.41;44.49
80699;BME280;70062;51.658;5.658;2023-09-19T13:39:09;100775.12;;;23.16;45.37
80699;BME280;70062;51.658;5.658;2023-09-19T13:41:35;100775.73;;;22.87;45.44
80699;BME280;70062;51.658;5.658;2023-09-19T13:44:04;100782.05;;;22.60;46.37
80699;BME280;70062;51.658;5.658;2023-09-19T13:46:30;100790.61;;;22.75;46.78
80699;BME280;70062;51.658;5.658;2023-09-19T13:49:00;100779.84;;;23.16;46.46
80699;BME280;70062;51.658;5.658;2023-09-19T13:51:28;100776.90;;;23.49;45.58
80699;BME280;70062;51.658;5.658;2023-09-19T13:53:55;100777.49;;;23.74;45.20
80699;BME280;70062;51.658;5.658;2023-09-19T13:56:20;100779.70;;;23.84;45.31
80699;BME280;70062;51.658;5.658;2023-09-19T13:58:45;100780.36;;;23.91;44.66
80699;BME280;70062;51.658;5.658;2023-09-19T14:01:11;100774.17;;;23.97;43.93
80699;BME280;70062;51.658;5.658;2023-09-19T14:03:39;100767.92;;;24.13;43.84
80699;BME280;70062;51.658;5.658;2023-09-19T14:06:05;100765.19;;;24.31;43.22